Wemindji Airport
CYNC : now visible

Airfield :











YOU CAN JOIN US ON...

 
LOGIN :

Register | Disclaimer

   EN    FR    IT 

 









Legend :    VFR   Marginal VFR   IFR   Intensive IFR   Very Intensive IFR
Visi :
Ceiling :
>= 8 km
>= 3000ft
5 to 8 km
1000 to 3000 ft
1500m to 5 km
500 to 1000 ft
800 to 1500m
200 to 500 ft
< 800m
< 200 ft
Symbols :   Thunderstorms  Fog  Heavy snow  Heavy precipitations  Wind > 20 kt






- Airport Elevation : 66 ft
- IATA code : YNC


CYNC - Wemindji

CURRENT METAR :
  • 171800Z 25003KT 6SM -RA SCT004 BKN012 OVC033 13/13 A2968 RMK SF4SC2SC3 CVCTV CLD EMBD SLP052 DENSITY ALT 200FT

EXPIRED METARs :
  • 171700Z 25005KT 220V280 6SM -RA SCT005 BKN016 OVC037 13/13 A2967 RMK SF4SC2SC2 CVCTV CLD EMBD SLP050 DENSITY ALT 200FT
  • 171600Z 21010G18KT 6SM -RA BKN005 OVC022 13/13 A2974 RMK SC5SC3 CVTCV CLD EMBD SF ASOCTD PRESRR SLP072 DENSITY ALT 100FT
  • 171556Z 21010G16KT 170V240 6SM -RA SCT005 BKN022 OVC063 13/13 A2973 RMK SF3SC3SC2 PRESRR SLP068 DENSITY ALT 100FT
  • 171538Z 22006KT 15SM FEW006 SCT020 BKN063 OVC100 13/13 A2971 RMK SF1SC3SC2AS2 SLP061 DENSITY ALT 100FT

TAF N/A
CZUL FIR / North America



MET'MAP, your aeronautical weather chart ! - Copyright ORBIFLY December 2007 - Disclaimer

ORBIFLY MET'MAP TEAM :

Programming & Development : Alexandra Zaïnal
Concept & original design : Baudouin d'Aumeries
Assistance for programming : Marc-Olivier Méhu
Technical & hardware support : Manuel Goepfert

Contact : metmap@orbifly.com




SOURCES & CREDITS :

   NOAA       Earth
Advisory